Skip Navigation LinksHome page > Weather > Current weather Skip Navigation Links

Current Weather

Converse County, Douglas, Wyo.

For information only: do not use for flight planning or navigation.
Latest weather
Observation time Tuesday, June 25, 2019 11:53 AM MDT
Local time Tuesday, June 25, 2019 12:13 PM MDT
Flight conditions Visual Meteorological Conditions
Winds
Wind direction variable
Wind speed 3 mph
Visibility 10 mi.
Sky condition
Ceiling unlimited
Sky clear
Temperature 74°F
Dewpoint 51°F
Altimeter 30.00 in.Hg
Pressure change last 3 hours0.02 in.Hg
Pressure falling more quickly
Derived measurements
Relative humidity 45%
Density altitude 5986 ft.
Sea-level pressure 29.86 in.Hg
Climate data
Temperature minimum, last 6 hours 43°F
Temperature maximum, last 6 hours 74°F
Remarks
Fully automated report.
System requires maintenance.
Automated weather observing station with precipitation discriminator.
METAR KDGW 251753Z AUTO VRB03KT 10SM CLR 23/11 A3000 RMK AO2 SLP111 T02330106 10233 20061 58006 $

Settings

Location code

InnerDrive.Weather 4.0.6770.0 Release CLR 4.0.30319.42000
Copyright ©2018 Inner Drive Technology. All rights reserved. Portions Copyright ©1986-2018 David Braverman.

Find weather

Site navigation


Skip Navigation Links

Place info

Page info

PayPal - The safer, easier way to pay online!

Return home.

Copyright ©2019 Inner Drive Technology. Purveyors of fine, hand-crafted computer software. Page printed 2019-06-25T18:13:51 UTC.